Time;durP1;ratioP1;P1;durP2;ratioP2;P2;SDS_P1;SDS_P2;PMS_P1;PMS_P2;Temp;Humidity;BMP_temperature;BMP_pressure;BME280_temperature;BME280_humidity;BME280_pressure;Samples;Min_cycle;Max_cycle;Signal;HPM_P1;HPM_P2
2022/01/27 00:00:43;;;;;;;31.23;20.58;;;6.50;74.00;;;;;;4985016;28;20100;-80
2022/01/27 00:03:36;;;;;;;37.47;21.80;;;6.50;74.00;;;;;;4983646;28;20141;-79
2022/01/27 00:06:07;;;;;;;31.40;20.05;;;6.50;74.00;;;;;;4943157;28;20102;-79
2022/01/27 00:08:43;;;;;;;38.38;21.98;;;6.50;74.00;;;;;;5001045;28;20038;-80
2022/01/27 00:11:14;;;;;;;35.65;20.52;;;6.50;74.00;;;;;;4977730;28;20046;-79
2022/01/27 00:13:46;;;;;;;31.70;19.58;;;6.50;74.00;;;;;;5032013;28;20045;-79
2022/01/27 00:16:19;;;;;;;36.45;20.45;;;6.50;73.90;;;;;;5062213;28;20402;-79
2022/01/27 00:18:49;;;;;;;35.70;20.27;;;6.50;73.90;;;;;;5091982;28;20072;-79
2022/01/27 00:21:18;;;;;;;35.55;19.90;;;6.50;74.30;;;;;;5076968;28;20044;-80
2022/01/27 00:23:45;;;;;;;34.78;19.65;;;6.50;73.90;;;;;;5072860;28;20086;-79
2022/01/27 00:26:14;;;;;;;33.40;20.20;;;6.50;73.90;;;;;;5075171;28;20055;-80
2022/01/27 00:28:41;;;;;;;33.90;19.85;;;6.50;73.90;;;;;;5073807;28;20052;-79
2022/01/27 00:31:07;;;;;;;33.97;20.20;;;6.50;73.90;;;;;;5061213;28;20044;-79
2022/01/27 00:33:33;;;;;;;30.95;20.38;;;6.50;73.90;;;;;;5053318;28;20052;-79
2022/01/27 00:35:58;;;;;;;31.38;19.77;;;6.50;73.80;;;;;;5071697;28;20049;-79
2022/01/27 00:38:24;;;;;;;31.83;18.30;;;6.50;73.80;;;;;;5077259;28;20116;-80
2022/01/27 00:40:50;;;;;;;30.13;19.20;;;6.50;73.80;;;;;;5067970;28;20472;-79
2022/01/27 00:43:17;;;;;;;37.28;20.88;;;6.50;73.70;;;;;;5045077;28;20082;-79
2022/01/27 00:45:42;;;;;;;30.35;18.30;;;6.60;73.80;;;;;;5058446;28;20522;-79
2022/01/27 00:48:08;;;;;;;29.88;18.13;;;6.60;73.80;;;;;;5064732;28;20044;-79
2022/01/27 00:50:36;;;;;;;35.63;19.85;;;6.50;73.70;;;;;;5081378;28;20040;-79
2022/01/27 00:53:06;;;;;;;32.95;19.60;;;6.60;73.80;;;;;;5044746;28;20085;-79
2022/01/27 00:55:38;;;;;;;32.20;20.08;;;6.50;73.70;;;;;;5070231;28;20504;-79
2022/01/27 00:58:21;;;;;;;32.72;18.65;;;6.60;73.70;;;;;;5073840;28;20125;-80
2022/01/27 01:00:55;;;;;;;26.83;17.83;;;6.60;73.60;;;;;;5062114;28;20044;-79
2022/01/27 01:03:32;;;;;;;29.42;18.15;;;6.60;73.60;;;;;;5052818;28;20133;-80
2022/01/27 01:06:15;;;;;;;30.83;18.90;;;6.60;73.70;;;;;;5071904;28;20090;-79
2022/01/27 01:11:34;;;;;;;32.33;18.27;;;6.60;73.70;;;;;;5061597;28;20421;-79
2022/01/27 01:30:47;;;;;;;30.33;18.30;;;6.60;73.50;;;;;;4997248;28;20097;-79
2022/01/27 01:33:12;;;;;;;26.65;17.02;;;6.60;73.50;;;;;;5030538;28;20091;-78
2022/01/27 01:35:49;;;;;;;30.10;18.17;;;6.60;73.50;;;;;;5016876;28;20483;-79
2022/01/27 01:38:19;;;;;;;28.20;17.85;;;6.60;73.50;;;;;;5019113;28;20531;-79
2022/01/27 01:40:50;;;;;;;26.83;16.88;;;6.60;73.50;;;;;;5021517;28;20060;-80
2022/01/27 01:43:17;;;;;;;27.77;17.95;;;6.60;73.50;;;;;;5011577;28;20045;-79
2022/01/27 01:45:44;;;;;;;30.52;17.80;;;6.50;73.40;;;;;;5013541;28;20061;-79
2022/01/27 01:48:11;;;;;;;29.77;19.08;;;6.60;73.50;;;;;;4997699;28;20564;-79
2022/01/27 01:50:38;;;;;;;36.08;19.30;;;6.50;73.40;;;;;;5009702;28;20485;-78
2022/01/27 01:53:04;;;;;;;32.38;18.42;;;6.50;73.50;;;;;;5031004;28;20396;-79
2022/01/27 01:55:32;;;;;;;29.48;17.90;;;6.70;73.60;;;;;;5001999;28;20038;-79
2022/01/27 01:57:58;;;;;;;36.45;18.73;;;6.60;73.50;;;;;;5015888;28;20127;-79
2022/01/27 02:00:25;;;;;;;31.40;18.17;;;6.50;73.40;;;;;;5074696;28;20055;-79
2022/01/27 02:02:51;;;;;;;31.92;18.65;;;6.50;73.40;;;;;;5090601;28;20040;-79
2022/01/27 02:05:26;;;;;;;34.83;18.55;;;6.50;73.40;;;;;;5075377;28;20078;-79
2022/01/27 02:19:22;;;;;;;;;;;6.40;73.40;;;;;;4981727;28;20042;-79
2022/01/27 02:21:53;;;;;;;32.83;18.23;;;6.40;73.40;;;;;;5005500;28;20372;-79
2022/01/27 02:24:20;;;;;;;28.17;17.65;;;6.40;73.50;;;;;;5013767;28;20054;-80
2022/01/27 02:26:49;;;;;;;34.67;19.05;;;6.40;73.50;;;;;;5001995;28;20046;-79
2022/01/27 02:29:19;;;;;;;36.28;20.00;;;6.30;73.40;;;;;;4980076;28;20061;-79
2022/01/27 02:31:46;;;;;;;29.75;18.23;;;6.30;73.50;;;;;;5002666;28;20445;-79
2022/01/27 02:34:12;;;;;;;37.10;20.75;;;6.30;73.40;;;;;;4996826;28;20042;-80
2022/01/27 02:36:38;;;;;;;32.88;19.75;;;6.30;73.40;;;;;;4980976;28;20533;-79
2022/01/27 02:39:05;;;;;;;31.25;18.02;;;6.30;73.50;;;;;;4993324;28;20048;-79
2022/01/27 02:41:36;;;;;;;30.58;19.70;;;6.30;73.50;;;;;;4983968;28;20038;-79
2022/01/27 02:44:02;;;;;;;35.33;20.75;;;6.30;73.50;;;;;;4994203;28;20061;-79
2022/01/27 02:46:35;;;;;;;33.20;19.77;;;6.30;73.50;;;;;;4994762;28;20049;-79
2022/01/27 02:49:00;;;;;;;32.35;20.45;;;6.30;73.50;;;;;;4980246;28;20062;-79
2022/01/27 02:51:26;;;;;;;32.70;20.52;;;6.30;73.40;;;;;;5042952;28;20504;-79
2022/01/27 02:53:51;;;;;;;33.50;19.50;;;6.20;73.50;;;;;;5056684;28;20427;-79
2022/01/27 02:56:18;;;;;;;34.72;20.45;;;6.20;73.50;;;;;;5056469;28;20048;-79
2022/01/27 02:58:44;;;;;;;33.90;19.77;;;6.20;73.70;;;;;;5071773;28;20033;-78
2022/01/27 03:01:10;;;;;;;34.15;20.10;;;6.20;73.60;;;;;;5051123;28;20052;-79
2022/01/27 03:03:36;;;;;;;36.45;20.88;;;6.20;73.70;;;;;;5052511;28;20049;-79
2022/01/27 03:06:02;;;;;;;35.75;21.52;;;6.30;73.80;;;;;;5051927;28;20064;-79
2022/01/27 03:08:27;;;;;;;33.70;21.75;;;6.20;73.80;;;;;;5055577;28;20044;-80
2022/01/27 03:11:02;;;;;;;32.78;20.60;;;6.20;73.80;;;;;;5062412;28;20120;-79
2022/01/27 03:13:30;;;;;;;32.38;21.45;;;6.20;73.90;;;;;;5056974;28;20037;-79
2022/01/27 03:15:56;;;;;;;39.70;22.17;;;6.20;73.90;;;;;;5070180;28;20158;-80
2022/01/27 03:18:21;;;;;;;33.15;21.02;;;6.20;74.00;;;;;;5064131;28;20071;-79
2022/01/27 03:20:47;;;;;;;35.17;21.25;;;6.20;74.00;;;;;;5055438;28;20124;-79
2022/01/27 03:23:13;;;;;;;39.38;22.17;;;6.20;74.00;;;;;;5056194;28;20044;-79
2022/01/27 03:25:38;;;;;;;36.03;21.33;;;6.20;74.00;;;;;;5056219;28;20052;-79
2022/01/27 03:28:07;;;;;;;34.85;21.88;;;6.20;74.00;;;;;;5068570;28;20471;-81
2022/01/27 03:30:32;;;;;;;38.70;22.70;;;6.20;74.10;;;;;;5054672;28;20041;-79
2022/01/27 03:32:58;;;;;;;38.33;21.13;;;6.30;74.10;;;;;;5050301;28;20377;-79
2022/01/27 03:35:24;;;;;;;36.33;21.27;;;6.60;74.30;;;;;;5035155;28;20523;-79
2022/01/27 03:37:49;;;;;;;39.28;23.42;;;6.30;74.10;;;;;;5070573;28;20102;-79
2022/01/27 03:40:15;;;;;;;39.65;22.08;;;6.30;74.10;;;;;;5068413;28;20063;-79
2022/01/27 03:42:50;;;;;;;32.88;21.40;;;6.30;74.10;;;;;;5054803;28;20062;-79
2022/01/27 03:45:16;;;;;;;34.28;20.65;;;6.30;74.10;;;;;;5068619;28;20119;-79
2022/01/27 03:47:42;;;;;;;37.63;21.48;;;6.30;74.10;;;;;;5060929;28;20036;-80
2022/01/27 03:50:08;;;;;;;35.05;22.23;;;6.30;74.00;;;;;;5073895;28;20045;-80
2022/01/27 03:52:34;;;;;;;35.90;22.10;;;6.40;74.10;;;;;;5038682;28;20048;-79
2022/01/27 03:54:59;;;;;;;37.08;22.13;;;6.30;74.00;;;;;;5063122;28;20052;-79
2022/01/27 03:57:25;;;;;;;39.22;22.70;;;6.40;74.10;;;;;;5079899;28;20036;-79
2022/01/27 03:59:50;;;;;;;36.50;21.40;;;6.40;74.00;;;;;;5089881;28;20135;-80
2022/01/27 04:02:17;;;;;;;36.22;21.15;;;6.40;74.00;;;;;;5056204;28;20059;-80
2022/01/27 04:04:42;;;;;;;35.88;21.40;;;6.40;74.00;;;;;;5058756;28;20047;-80
2022/01/27 04:07:08;;;;;;;34.90;20.73;;;6.40;74.00;;;;;;5094356;28;20054;-79
2022/01/27 04:09:34;;;;;;;38.38;21.80;;;6.40;74.00;;;;;;5077836;28;20120;-79
2022/01/27 04:11:59;;;;;;;35.38;21.25;;;6.40;74.00;;;;;;5074035;28;20036;-78
2022/01/27 04:14:25;;;;;;;36.47;21.98;;;6.40;74.00;;;;;;5055192;28;20127;-78
2022/01/27 04:16:51;;;;;;;33.30;21.00;;;6.40;73.90;;;;;;5057709;28;20491;-79
2022/01/27 04:19:17;;;;;;;33.63;20.67;;;6.40;74.00;;;;;;5085256;28;20036;-79
2022/01/27 04:21:42;;;;;;;38.30;20.92;;;6.40;74.00;;;;;;5067002;28;20048;-80
2022/01/27 04:24:10;;;;;;;36.47;21.10;;;6.40;74.00;;;;;;5060917;28;20079;-80
2022/01/27 04:26:43;;;;;;;37.78;22.30;;;6.40;74.00;;;;;;5068987;28;20044;-79
2022/01/27 04:29:09;;;;;;;38.30;21.25;;;6.50;74.10;;;;;;5073069;28;20044;-79
2022/01/27 04:31:37;;;;;;;36.63;21.23;;;6.50;74.10;;;;;;5053085;28;20373;-79
2022/01/27 04:34:03;;;;;;;36.33;21.00;;;6.50;74.00;;;;;;5057070;28;20048;-79
2022/01/27 04:36:31;;;;;;;35.25;21.20;;;6.50;74.00;;;;;;5053551;28;20123;-79
2022/01/27 04:44:07;;;;;;;34.13;21.17;;;6.50;74.00;;;;;;5086044;28;20082;-79
2022/01/27 04:46:44;;;;;;;34.83;19.60;;;6.50;74.40;;;;;;5084731;28;20472;-79
2022/01/27 04:49:11;;;;;;;33.15;19.48;;;6.50;74.00;;;;;;5075292;28;20052;-80
2022/01/27 04:51:37;;;;;;;30.33;20.25;;;6.60;74.00;;;;;;5062828;28;20045;-80
2022/01/27 04:54:27;;;;;;;36.03;20.17;;;6.60;74.10;;;;;;5045428;28;20048;-80
2022/01/27 04:56:51;;;;;;;41.17;20.25;;;6.60;74.10;;;;;;5070810;28;20082;-79
2022/01/27 04:59:25;;;;;;;34.33;18.95;;;6.60;74.20;;;;;;5071852;28;20051;-79
2022/01/27 05:01:57;;;;;;;29.25;18.15;;;6.60;74.30;;;;;;5074640;28;20036;-79
2022/01/27 05:04:29;;;;;;;31.40;18.15;;;6.60;74.30;;;;;;5091803;28;20406;-80
2022/01/27 05:06:54;;;;;;;36.10;19.70;;;6.60;74.40;;;;;;5066108;28;20515;-79
2022/01/27 05:09:20;;;;;;;34.53;20.05;;;6.60;74.50;;;;;;5077701;28;20036;-80
2022/01/27 05:11:51;;;;;;;32.75;17.70;;;6.60;74.50;;;;;;5091820;28;20069;-79
2022/01/27 05:14:21;;;;;;;35.05;18.13;;;6.60;74.50;;;;;;5078197;28;20068;-79
2022/01/27 05:16:46;;;;;;;35.05;19.40;;;6.70;74.60;;;;;;5085576;28;20142;-79
2022/01/27 05:19:12;;;;;;;32.80;18.52;;;6.60;75.00;;;;;;5069317;28;20477;-79
2022/01/27 05:21:38;;;;;;;31.85;17.70;;;6.60;74.60;;;;;;5073317;28;20073;-79
2022/01/27 05:24:04;;;;;;;32.67;16.85;;;6.70;74.70;;;;;;5074482;28;20036;-79
2022/01/27 05:26:32;;;;;;;32.50;16.92;;;6.70;74.70;;;;;;5077197;28;20040;-80
2022/01/27 05:28:57;;;;;;;27.10;16.30;;;6.70;75.10;;;;;;5052402;28;20052;-79
2022/01/27 05:31:23;;;;;;;31.98;16.73;;;6.70;74.70;;;;;;5071130;28;20483;-79
2022/01/27 05:33:48;;;;;;;32.03;16.50;;;6.70;74.80;;;;;;5075345;28;20039;-79
2022/01/27 05:36:14;;;;;;;29.73;15.80;;;6.70;74.70;;;;;;5081763;28;20040;-79
2022/01/27 05:38:40;;;;;;;30.17;16.88;;;6.80;74.80;;;;;;5055482;28;20091;-79
2022/01/27 05:41:06;;;;;;;29.10;16.30;;;6.80;74.90;;;;;;5053808;28;20468;-79
2022/01/27 05:43:33;;;;;;;30.33;16.85;;;6.80;74.90;;;;;;5065332;28;20475;-79
2022/01/27 05:45:59;;;;;;;28.88;14.80;;;6.80;74.90;;;;;;5071706;28;20509;-80
2022/01/27 05:48:25;;;;;;;29.10;15.55;;;6.80;75.00;;;;;;5075113;28;20048;-79
2022/01/27 05:50:51;;;;;;;35.72;17.85;;;6.80;75.00;;;;;;5073001;28;20488;-80
2022/01/27 05:53:17;;;;;;;30.45;15.15;;;6.80;75.00;;;;;;5084735;28;20040;-80
2022/01/27 05:55:42;;;;;;;31.35;17.10;;;6.80;75.20;;;;;;5069056;28;20044;-79
2022/01/27 05:58:08;;;;;;;35.17;16.17;;;6.90;75.50;;;;;;5058704;28;20361;-79
2022/01/27 06:00:34;;;;;;;31.45;15.77;;;6.90;75.60;;;;;;5081177;28;20040;-78
2022/01/27 06:02:59;;;;;;;30.00;16.52;;;6.90;75.60;;;;;;5039531;28;20127;-79
2022/01/27 06:05:26;;;;;;;31.70;15.55;;;6.90;75.80;;;;;;5059637;28;20066;-79
2022/01/27 06:07:52;;;;;;;25.02;13.65;;;6.90;76.00;;;;;;5073686;28;20395;-78
2022/01/27 06:10:18;;;;;;;31.95;16.30;;;6.90;76.20;;;;;;5083797;28;20480;-79
2022/01/27 06:12:49;;;;;;;31.98;14.88;;;6.90;76.30;;;;;;5076243;28;20045;-79
2022/01/27 06:15:15;;;;;;;35.22;15.15;;;6.90;76.40;;;;;;5073668;28;20074;-79
2022/01/27 06:17:41;;;;;;;36.80;14.63;;;6.90;76.40;;;;;;5077901;28;20072;-78
2022/01/27 06:20:07;;;;;;;32.97;15.57;;;6.90;76.40;;;;;;5077265;28;20040;-79
2022/01/27 06:22:33;;;;;;;33.40;13.73;;;6.90;76.70;;;;;;5076934;28;20051;-79
2022/01/27 06:24:58;;;;;;;27.88;13.57;;;6.90;76.80;;;;;;5073023;28;20424;-79
2022/01/27 06:27:24;;;;;;;27.23;13.60;;;6.90;76.90;;;;;;5055455;28;20044;-78
2022/01/27 06:29:49;;;;;;;33.25;14.90;;;6.90;76.90;;;;;;5072515;28;20086;-79
2022/01/27 06:32:15;;;;;;;27.27;12.88;;;6.90;77.00;;;;;;5072433;28;20083;-79
2022/01/27 06:34:40;;;;;;;34.80;14.15;;;6.90;77.20;;;;;;5066047;28;20119;-78
2022/01/27 06:37:06;;;;;;;30.92;14.05;;;7.00;77.30;;;;;;5055587;28;20041;-79
2022/01/27 06:39:32;;;;;;;30.73;13.68;;;7.00;77.50;;;;;;5079312;28;20377;-79
2022/01/27 06:41:57;;;;;;;31.02;13.88;;;6.90;77.40;;;;;;5058047;28;20068;-78
2022/01/27 06:44:23;;;;;;;30.02;14.55;;;6.90;77.60;;;;;;5065052;28;20056;-79
2022/01/27 06:46:49;;;;;;;28.75;13.15;;;7.20;77.70;;;;;;5074768;28;20048;-78
2022/01/27 06:49:16;;;;;;;27.45;13.60;;;6.90;77.60;;;;;;5054874;28;20480;-79
2022/01/27 06:51:46;;;;;;;27.55;12.93;;;7.00;77.90;;;;;;5039573;28;20490;-79
2022/01/27 06:54:12;;;;;;;29.20;13.05;;;6.90;77.80;;;;;;5045856;28;20463;-78
2022/01/27 06:56:39;;;;;;;25.15;13.13;;;7.00;78.00;;;;;;5074465;28;20484;-78
2022/01/27 06:59:05;;;;;;;26.98;12.73;;;6.90;78.00;;;;;;5069059;28;20037;-79
2022/01/27 07:01:31;;;;;;;25.65;13.77;;;7.00;78.00;;;;;;5063336;28;20041;-79
2022/01/27 07:03:57;;;;;;;31.17;14.82;;;7.00;78.10;;;;;;5071387;28;20047;-78
2022/01/27 07:06:22;;;;;;;29.08;12.98;;;7.00;78.10;;;;;;5081607;28;20044;-78
2022/01/27 07:08:48;;;;;;;27.35;14.20;;;7.00;78.20;;;;;;5058358;28;20555;-78
2022/01/27 07:11:14;;;;;;;27.00;13.05;;;7.00;78.20;;;;;;5074851;28;20049;-79
2022/01/27 07:13:40;;;;;;;27.13;12.57;;;7.00;78.30;;;;;;5070273;28;20029;-78
2022/01/27 07:16:09;;;;;;;24.88;12.95;;;7.00;78.40;;;;;;5070131;28;20044;-78
2022/01/27 07:18:36;;;;;;;27.25;14.32;;;7.00;78.50;;;;;;5040007;28;20041;-79
2022/01/27 07:21:05;;;;;;;25.33;13.95;;;7.00;78.50;;;;;;5041007;28;20401;-79
2022/01/27 07:23:31;;;;;;;29.08;14.25;;;7.00;78.50;;;;;;5037576;28;20041;-79
2022/01/27 07:25:56;;;;;;;31.50;13.32;;;7.10;78.60;;;;;;5066337;28;20036;-79
2022/01/27 07:28:22;;;;;;;25.10;12.93;;;7.20;78.70;;;;;;5070077;28;20511;-79
2022/01/27 07:30:48;;;;;;;29.52;12.48;;;7.00;78.50;;;;;;5074187;28;20044;-79
2022/01/27 07:33:14;;;;;;;25.33;12.98;;;7.10;78.60;;;;;;5056961;28;20044;-78
2022/01/27 07:35:41;;;;;;;24.55;12.10;;;7.10;78.70;;;;;;5057044;28;20053;-79
2022/01/27 07:38:07;;;;;;;25.13;12.40;;;7.10;78.80;;;;;;5074250;28;20472;-79
2022/01/27 07:40:33;;;;;;;23.25;11.63;;;7.10;78.80;;;;;;5074797;28;20061;-79
2022/01/27 07:42:58;;;;;;;22.85;11.63;;;7.10;78.80;;;;;;5075053;28;20072;-79
2022/01/27 07:45:24;;;;;;;24.85;12.10;;;7.10;78.80;;;;;;5074615;28;20071;-79
2022/01/27 07:47:50;;;;;;;23.48;11.23;;;7.20;78.90;;;;;;5057682;28;20053;-78
2022/01/27 07:50:15;;;;;;;26.15;11.05;;;7.10;79.00;;;;;;5054454;28;20053;-80
2022/01/27 07:52:41;;;;;;;21.05;11.38;;;7.10;79.00;;;;;;5054222;28;20053;-79
2022/01/27 07:55:09;;;;;;;29.90;12.57;;;7.20;79.50;;;;;;5054499;28;20033;-79
2022/01/27 07:57:34;;;;;;;31.55;13.05;;;7.20;79.10;;;;;;5071595;28;20882;-78
2022/01/27 08:00:00;;;;;;;28.10;12.27;;;7.20;79.10;;;;;;5056316;28;20166;-79
2022/01/27 08:02:26;;;;;;;26.58;13.35;;;7.20;79.20;;;;;;5074590;28;20059;-80
2022/01/27 08:04:51;;;;;;;26.30;12.02;;;7.20;79.20;;;;;;5074517;28;20146;-79
2022/01/27 08:07:17;;;;;;;26.30;11.82;;;7.20;79.20;;;;;;5073586;28;20047;-79
2022/01/27 08:09:43;;;;;;;26.95;11.27;;;7.20;79.20;;;;;;5074069;28;20066;-79
2022/01/27 08:12:08;;;;;;;28.30;11.80;;;7.20;79.30;;;;;;5074196;28;20044;-79
2022/01/27 08:14:34;;;;;;;27.08;10.82;;;7.20;79.30;;;;;;5073126;28;20391;-79
2022/01/27 08:17:00;;;;;;;28.13;11.88;;;7.30;79.30;;;;;;5074302;28;20045;-79
2022/01/27 08:19:25;;;;;;;30.88;12.05;;;7.30;79.30;;;;;;5057375;28;20476;-79
2022/01/27 08:21:51;;;;;;;30.30;12.63;;;7.40;79.40;;;;;;5074235;28;20047;-79
2022/01/27 08:24:18;;;;;;;26.33;12.38;;;7.30;79.40;;;;;;5056226;28;20040;-79
2022/01/27 08:26:46;;;;;;;34.03;13.02;;;7.30;79.40;;;;;;5068884;28;20124;-79
2022/01/27 08:29:20;;;;;;;27.30;12.23;;;7.30;79.50;;;;;;5074200;28;20044;-79
2022/01/27 08:32:29;;;;;;;21.40;11.20;;;7.40;79.50;;;;;;5073430;28;20040;-79
2022/01/27 08:34:41;;;;;;;27.25;10.75;;;7.30;79.40;;;;;;5069624;28;20048;-79
2022/01/27 08:37:13;;;;;;;26.88;10.93;;;7.40;79.50;;;;;;5073725;28;20041;-80
2022/01/27 08:39:40;;;;;;;28.63;10.68;;;7.50;79.60;;;;;;5056099;28;20040;-80
2022/01/27 08:42:07;;;;;;;25.65;10.98;;;7.40;79.60;;;;;;5035926;28;20120;-80
2022/01/27 08:44:34;;;;;;;25.50;10.93;;;7.40;79.60;;;;;;5035909;28;20091;-80
2022/01/27 08:46:59;;;;;;;25.10;12.02;;;7.40;79.60;;;;;;5053831;28;20048;-80
2022/01/27 08:49:26;;;;;;;25.20;11.57;;;7.40;79.70;;;;;;5053566;28;20136;-80
2022/01/27 08:51:53;;;;;;;26.80;10.05;;;7.40;79.70;;;;;;5068301;28;20051;-80
2022/01/27 08:54:18;;;;;;;25.02;10.50;;;7.40;79.80;;;;;;5055491;28;20093;-79
2022/01/27 08:56:44;;;;;;;25.95;9.98;;;7.50;79.80;;;;;;5073569;28;20131;-80
2022/01/27 08:59:10;;;;;;;21.95;9.75;;;7.50;79.80;;;;;;5073888;28;20036;-79
2022/01/27 09:01:37;;;;;;;28.10;11.45;;;7.50;79.80;;;;;;5071077;28;20581;-79
2022/01/27 09:04:04;;;;;;;25.33;8.60;;;7.50;79.90;;;;;;5074151;28;20483;-79
2022/01/27 09:06:30;;;;;;;22.17;8.93;;;7.60;80.00;;;;;;5074473;28;20049;-79
2022/01/27 09:08:57;;;;;;;19.42;9.45;;;7.60;80.10;;;;;;5091039;28;20052;-81
2022/01/27 09:11:23;;;;;;;24.63;8.73;;;7.60;80.20;;;;;;5094220;28;20036;-80
2022/01/27 09:13:51;;;;;;;20.02;8.90;;;7.70;80.30;;;;;;5078562;28;20048;-80
2022/01/27 09:16:18;;;;;;;19.55;7.63;;;7.70;80.20;;;;;;5072939;28;20052;-80
2022/01/27 09:18:43;;;;;;;19.48;8.55;;;7.80;80.30;;;;;;5074488;28;20045;-81
2022/01/27 09:21:16;;;;;;;18.17;8.10;;;7.80;80.30;;;;;;5076906;28;20052;-80
2022/01/27 09:23:42;;;;;;;16.02;7.70;;;7.80;80.30;;;;;;5074900;28;20037;-80
2022/01/27 09:26:21;;;;;;;21.48;6.63;;;7.90;80.40;;;;;;5076071;28;20525;-80
2022/01/27 09:28:47;;;;;;;22.77;7.47;;;8.20;80.50;;;;;;5057516;28;20052;-80
2022/01/27 09:31:13;;;;;;;21.00;7.53;;;7.90;80.40;;;;;;5057509;28;20057;-79
2022/01/27 09:33:39;;;;;;;19.42;6.78;;;7.90;80.30;;;;;;5076978;28;20036;-80
2022/01/27 09:36:11;;;;;;;16.95;6.85;;;8.00;80.30;;;;;;5077344;28;20074;-80
2022/01/27 09:38:37;;;;;;;20.65;6.93;;;8.00;80.30;;;;;;5077551;28;20082;-80
2022/01/27 09:41:03;;;;;;;19.23;6.70;;;8.00;80.40;;;;;;5077113;28;20056;-80
2022/01/27 09:43:29;;;;;;;19.98;7.40;;;8.20;80.60;;;;;;5058803;28;20052;-78
2022/01/27 09:45:57;;;;;;;19.95;7.15;;;8.20;80.60;;;;;;5076237;28;20044;-80
2022/01/27 09:48:26;;;;;;;17.25;7.25;;;8.40;80.70;;;;;;5076813;28;20147;-80
2022/01/27 09:53:23;;;;;;;19.42;6.05;;;8.20;80.40;;;;;;5076926;28;20506;-80
2022/01/27 09:55:49;;;;;;;17.75;6.22;;;8.20;80.30;;;;;;5076501;28;20036;-80
2022/01/27 09:58:14;;;;;;;18.98;6.18;;;8.30;80.30;;;;;;5076813;28;20045;-80
2022/01/27 10:00:40;;;;;;;25.58;6.97;;;8.30;80.30;;;;;;5076956;28;20032;-80
2022/01/27 10:03:12;;;;;;;17.00;6.88;;;8.30;80.30;;;;;;5076995;28;20479;-80
2022/01/27 10:05:39;;;;;;;19.20;6.25;;;8.30;80.20;;;;;;5076656;28;20044;-80
2022/01/27 10:08:15;;;;;;;19.05;5.43;;;8.40;80.10;;;;;;5076893;28;20044;-80
2022/01/27 10:10:43;;;;;;;19.13;6.85;;;8.60;80.20;;;;;;5076417;28;20041;-81
2022/01/27 10:13:11;;;;;;;14.77;6.03;;;8.40;80.00;;;;;;5058792;28;20048;-81
2022/01/27 10:15:43;;;;;;;19.38;6.80;;;8.50;80.10;;;;;;5058147;28;20423;-81
2022/01/27 10:18:18;;;;;;;17.77;5.57;;;8.60;80.30;;;;;;5076718;28;20124;-80
2022/01/27 10:21:05;;;;;;;15.65;6.18;;;8.50;80.10;;;;;;5076565;28;20044;-81
2022/01/27 10:23:33;;;;;;;20.60;6.22;;;8.50;80.10;;;;;;5076175;28;20512;-81
2022/01/27 10:26:12;;;;;;;16.10;5.93;;;8.50;80.10;;;;;;5075905;28;20048;-80
2022/01/27 10:28:49;;;;;;;19.10;5.93;;;8.50;80.10;;;;;;5073577;28;20049;-81
2022/01/27 10:31:23;;;;;;;17.20;5.70;;;8.50;80.10;;;;;;5075569;28;20044;-80
2022/01/27 10:33:57;;;;;;;20.73;5.85;;;8.80;80.30;;;;;;5076398;28;20049;-81
2022/01/27 10:36:26;;;;;;;18.52;5.63;;;8.50;80.20;;;;;;5076272;28;20076;-80
2022/01/27 10:39:05;;;;;;;18.70;5.25;;;8.50;80.20;;;;;;5075566;28;20063;-80
2022/01/27 10:41:33;;;;;;;21.77;5.80;;;8.70;80.40;;;;;;5076054;28;20551;-80
2022/01/27 10:44:07;;;;;;;16.63;5.00;;;8.60;80.30;;;;;;5074647;28;20037;-81
2022/01/27 10:46:34;;;;;;;18.25;7.07;;;8.60;80.30;;;;;;5076036;28;20559;-80
2022/01/27 10:49:10;;;;;;;14.20;5.25;;;8.60;80.20;;;;;;5075373;28;20060;-81
2022/01/27 10:51:49;;;;;;;13.77;5.25;;;8.80;80.40;;;;;;5076071;28;20063;-80
2022/01/27 10:54:21;;;;;;;17.88;5.97;;;8.70;80.40;;;;;;5072164;28;20426;-80
2022/01/27 10:56:47;;;;;;;15.15;5.40;;;8.70;80.20;;;;;;5057980;28;20509;-81
2022/01/27 10:59:15;;;;;;;13.75;4.80;;;8.70;80.20;;;;;;5075238;28;20045;-80
2022/01/27 11:01:51;;;;;;;13.50;4.93;;;8.70;80.10;;;;;;5074413;28;20479;-81
2022/01/27 11:04:19;;;;;;;16.13;5.15;;;8.80;80.30;;;;;;5075652;28;20559;-81
2022/01/27 11:06:57;;;;;;;19.27;5.20;;;8.70;80.10;;;;;;5074307;28;20058;-81
2022/01/27 11:09:24;;;;;;;15.00;4.95;;;8.80;80.20;;;;;;5075203;28;20083;-81
2022/01/27 11:11:52;;;;;;;19.55;5.22;;;8.90;80.30;;;;;;5074365;28;20037;-81
2022/01/27 11:14:19;;;;;;;14.10;5.38;;;8.80;80.10;;;;;;5074596;28;20041;-80
2022/01/27 11:16:47;;;;;;;18.02;4.47;;;8.80;80.10;;;;;;5075299;28;20036;-81
2022/01/27 11:27:30;;;;;;;16.63;5.05;;;8.90;79.90;;;;;;4977363;28;20100;-81
2022/01/27 11:30:07;;;;;;;15.23;4.15;;;9.00;79.90;;;;;;4979019;28;20548;-81
2022/01/27 11:32:50;;;;;;;15.70;4.72;;;9.00;79.80;;;;;;5013083;28;20433;-81
2022/01/27 11:35:18;;;;;;;16.52;4.88;;;9.10;79.80;;;;;;5013206;28;20104;-81
2022/01/27 11:37:57;;;;;;;14.60;3.40;;;9.10;79.70;;;;;;5012328;28;20054;-81
2022/01/27 11:40:44;;;;;;;13.00;3.58;;;9.10;79.50;;;;;;4993214;28;20490;-80
2022/01/27 11:43:13;;;;;;;16.02;3.10;;;9.20;79.30;;;;;;5013334;28;20216;-81
2022/01/27 11:45:49;;;;;;;14.27;3.17;;;9.20;79.20;;;;;;5012804;28;20536;-80
2022/01/27 11:48:25;;;;;;;12.55;2.83;;;9.30;79.20;;;;;;5012788;28;20053;-81
2022/01/27 11:51:07;;;;;;;12.88;4.10;;;9.30;78.90;;;;;;5012617;28;20050;-80
2022/01/27 11:53:45;;;;;;;15.02;3.40;;;9.30;78.60;;;;;;5006783;28;20497;-81
2022/01/27 11:56:29;;;;;;;17.95;4.93;;;9.40;78.40;;;;;;4993237;28;20065;-81
2022/01/27 11:59:01;;;;;;;17.80;3.88;;;9.40;78.20;;;;;;4992544;28;20046;-81
2022/01/27 12:01:28;;;;;;;16.95;4.10;;;9.40;78.10;;;;;;5014052;28;20052;-80
2022/01/27 12:04:06;;;;;;;16.25;4.22;;;9.40;78.00;;;;;;5070071;28;20052;-81
2022/01/27 12:07:03;;;;;;;13.13;3.55;;;9.80;78.10;;;;;;5073462;28;20472;-80
2022/01/27 12:09:30;;;;;;;21.17;4.80;;;9.50;77.90;;;;;;5073708;28;20079;-81
2022/01/27 12:12:27;;;;;;;18.65;3.88;;;9.50;77.90;;;;;;5074101;28;20430;-81
2022/01/27 12:15:01;;;;;;;11.90;3.05;;;9.50;77.80;;;;;;5054221;28;20044;-81
2022/01/27 12:17:28;;;;;;;18.25;4.15;;;9.50;77.80;;;;;;5036578;28;20492;-81
2022/01/27 12:20:08;;;;;;;20.20;4.07;;;9.80;77.90;;;;;;5050439;28;20078;-81
2022/01/27 12:22:41;;;;;;;15.63;4.50;;;9.50;77.70;;;;;;5074253;28;20051;-81
2022/01/27 12:25:07;;;;;;;17.50;3.30;;;9.50;77.60;;;;;;5073624;28;20499;-81
2022/01/27 12:27:33;;;;;;;12.82;3.30;;;9.70;77.60;;;;;;5036161;28;20056;-81
2022/01/27 12:30:00;;;;;;;14.52;3.85;;;9.90;77.60;;;;;;5036089;28;20135;-81
2022/01/27 12:32:30;;;;;;;17.63;3.35;;;9.70;77.30;;;;;;5072284;28;20044;-81
2022/01/27 12:35:12;;;;;;;13.35;3.30;;;9.60;77.30;;;;;;5073994;28;20049;-82
2022/01/27 12:37:43;;;;;;;16.80;3.50;;;9.60;77.20;;;;;;5073952;28;20059;-82
2022/01/27 12:40:28;;;;;;;16.15;3.40;;;9.60;77.20;;;;;;5072881;28;20045;-82
2022/01/27 12:42:59;;;;;;;;;;;9.70;77.30;;;;;;5056931;28;20052;-81
2022/01/27 12:45:30;;;;;;;18.48;3.47;;;9.60;77.00;;;;;;5073724;28;20432;-82
2022/01/27 12:48:00;;;;;;;17.90;3.80;;;9.60;76.90;;;;;;5073923;28;20048;-82
2022/01/27 12:50:28;;;;;;;15.68;3.35;;;9.70;76.80;;;;;;5052394;28;20359;-81
2022/01/27 12:53:03;;;;;;;14.35;3.28;;;9.60;76.70;;;;;;5064956;28;20139;-82
2022/01/27 12:55:30;;;;;;;;;;;9.60;76.60;;;;;;5055324;28;20044;-82
2022/01/27 12:58:00;;;;;;;19.85;3.95;;;9.60;76.40;;;;;;5073881;28;19975;-82
2022/01/27 13:00:28;;;;;;;15.63;3.85;;;9.60;76.50;;;;;;5073606;28;20533;-82
2022/01/27 13:03:00;;;;;;;13.95;3.25;;;9.70;76.50;;;;;;5072620;28;20072;-82
2022/01/27 13:05:37;;;;;;;16.20;3.50;;;9.60;76.30;;;;;;5073449;28;20037;-81
2022/01/27 13:08:14;;;;;;;18.73;4.03;;;9.60;76.30;;;;;;5055944;28;20147;-82
2022/01/27 13:10:46;;;;;;;14.15;3.13;;;9.60;76.20;;;;;;5056140;28;20487;-82
2022/01/27 13:13:19;;;;;;;22.80;4.88;;;9.60;76.20;;;;;;5079916;28;20499;-82
2022/01/27 13:15:45;;;;;;;17.73;3.83;;;9.60;76.20;;;;;;5073876;28;20045;-82
2022/01/27 13:18:27;;;;;;;18.60;3.58;;;9.90;76.30;;;;;;5056902;28;20056;-84
2022/01/27 13:20:56;;;;;;;13.18;3.53;;;9.60;76.00;;;;;;5066056;28;20091;-81
2022/01/27 13:23:28;;;;;;;20.85;3.92;;;9.50;76.00;;;;;;5056455;28;20048;-83
2022/01/27 13:26:08;;;;;;;14.05;3.10;;;9.60;76.00;;;;;;5051380;28;20120;-81
2022/01/27 13:28:36;;;;;;;14.25;3.38;;;9.50;75.90;;;;;;5059152;28;20052;-82
2022/01/27 13:31:09;;;;;;;17.65;3.38;;;9.50;75.80;;;;;;5060589;28;20033;-82
2022/01/27 13:33:39;;;;;;;19.05;3.97;;;9.60;75.80;;;;;;5063038;28;20136;-81
2022/01/27 13:36:08;;;;;;;18.73;3.83;;;9.50;75.50;;;;;;5072509;28;20392;-82